Woodboro, Wisconsin
Current Conditions -  °F | °C
As of 4:53 PM on Friday 19 Dec 2014 (Local Time) from KRHI Reporting Station
Broken Clouds Broken Clouds  
Wind Chill: 19°   Ceiling: 8500
Heat Index: 19°   Visibility: 10mi
Dew Point: 14°   Wind: 3mph
Humidity: 81%   Direction: 220°SW
Pressure: 30.21"   Gusts: NA
Location:  45.6521°N, 89.3386°W
Report Text: KRHI 192253Z AUTO 22003KT 10SM BKN085 M07/M10 A3021 RMK AO2 SLP266 T10721100
Loading
Personal Weather Stations






























Interactive Weather Map New forecast layout! Learn more

10-Day Weather Forecast

Advertisements
Track Severe Weather on mobile